Time;durP1;ratioP1;P1;durP2;ratioP2;P2;SDS_P1;SDS_P2;PMS_P1;PMS_P2;Temp;Humidity;BMP_temperature;BMP_pressure;BME280_temperature;BME280_humidity;BME280_pressure;Samples;Min_cycle;Max_cycle;Signal;HPM_P1;HPM_P2
2023/03/13 00:02:54;;;;;;;14.55;6.45;;;;;;;;;;6336549;28;20178;-74
2023/03/13 00:05:56;;;;;;;12.30;6.50;;;;;;;;;;6339840;28;20101;-72
2023/03/13 00:09:00;;;;;;;12.68;5.55;;;;;;;;;;6335906;28;20060;-72
2023/03/13 00:12:01;;;;;;;11.57;5.73;;;;;;;;;;6337342;27;20270;-74
2023/03/13 00:15:03;;;;;;;13.48;5.88;;;;;;;;;;6337225;27;20105;-73
2023/03/13 00:18:07;;;;;;;11.60;5.63;;;;;;;;;;6337587;28;20055;-71
2023/03/13 00:21:09;;;;;;;10.18;6.22;;;;;;;;;;6334460;27;20143;-74
2023/03/13 00:24:12;;;;;;;12.23;5.00;;;;;;;;;;6335063;27;20057;-74
2023/03/13 00:27:14;;;;;;;13.80;5.63;;;;;;;;;;6339411;28;20107;-70
2023/03/13 00:30:16;;;;;;;11.20;5.10;;;;;;;;;;6335548;28;20050;-75
2023/03/13 00:33:19;;;;;;;13.23;5.47;;;;;;;;;;6331963;28;20471;-73
2023/03/13 00:36:23;;;;;;;11.83;5.17;;;;;;;;;;6334365;27;20058;-69
2023/03/13 00:39:24;;;;;;;10.07;5.15;;;;;;;;;;6336678;27;20056;-69
2023/03/13 00:42:26;;;;;;;9.07;5.30;;;;;;;;;;6337477;27;20052;-74
2023/03/13 00:45:28;;;;;;;14.23;4.43;;;;;;;;;;6334961;28;20161;-75
2023/03/13 00:48:32;;;;;;;8.70;4.40;;;;;;;;;;6335720;27;20316;-74
2023/03/13 00:51:34;;;;;;;7.50;4.40;;;;;;;;;;6339099;28;20070;-74
2023/03/13 00:54:36;;;;;;;9.90;4.90;;;;;;;;;;6335752;27;20051;-72
2023/03/13 00:57:37;;;;;;;8.85;4.45;;;;;;;;;;6336125;28;20404;-72
2023/03/13 01:00:39;;;;;;;8.70;5.50;;;;;;;;;;6333582;28;20097;-74
2023/03/13 01:03:46;;;;;;;9.35;4.35;;;;;;;;;;6331296;28;20332;-74
2023/03/13 01:06:48;;;;;;;9.18;4.53;;;;;;;;;;6336196;28;20047;-73
2023/03/13 01:09:50;;;;;;;7.78;4.05;;;;;;;;;;6334279;28;20055;-73
2023/03/13 01:12:52;;;;;;;9.23;4.75;;;;;;;;;;6338834;27;20031;-75
2023/03/13 01:15:54;;;;;;;6.97;4.75;;;;;;;;;;6339238;28;20132;-74
2023/03/13 01:19:00;;;;;;;10.93;3.97;;;;;;;;;;6335434;28;20108;-74
2023/03/13 01:22:02;;;;;;;6.22;3.95;;;;;;;;;;6339282;28;20056;-74
2023/03/13 01:25:04;;;;;;;7.85;4.60;;;;;;;;;;6332673;28;20051;-71
2023/03/13 01:28:06;;;;;;;10.63;4.50;;;;;;;;;;6335083;27;20044;-72
2023/03/13 01:31:12;;;;;;;8.77;4.20;;;;;;;;;;6332092;28;20055;-72
2023/03/13 01:34:17;;;;;;;5.07;3.70;;;;;;;;;;6336700;28;20066;-74
2023/03/13 01:37:19;;;;;;;9.55;3.92;;;;;;;;;;6338686;27;20619;-75
2023/03/13 01:40:22;;;;;;;8.07;4.00;;;;;;;;;;6333019;28;20043;-73
2023/03/13 01:43:25;;;;;;;8.75;3.97;;;;;;;;;;6335696;28;20210;-75
2023/03/13 01:46:27;;;;;;;7.53;3.93;;;;;;;;;;6338157;28;20056;-73
2023/03/13 01:49:33;;;;;;;7.43;4.32;;;;;;;;;;6333615;28;20064;-72
2023/03/13 01:52:35;;;;;;;9.30;4.40;;;;;;;;;;6330717;28;20059;-73
2023/03/13 01:55:37;;;;;;;11.30;4.20;;;;;;;;;;6332342;28;20051;-74
2023/03/13 01:58:41;;;;;;;9.65;3.85;;;;;;;;;;6331676;27;20081;-68
2023/03/13 02:01:44;;;;;;;8.93;3.60;;;;;;;;;;6334353;28;20052;-75
2023/03/13 02:04:51;;;;;;;21.87;4.43;;;;;;;;;;6334820;28;20067;-73
2023/03/13 02:07:55;;;;;;;6.28;3.70;;;;;;;;;;6336466;27;20056;-73
2023/03/13 02:11:04;;;;;;;6.55;3.75;;;;;;;;;;6333115;28;20260;-73
2023/03/13 02:14:05;;;;;;;7.10;3.97;;;;;;;;;;6340986;28;20067;-74
2023/03/13 02:17:08;;;;;;;14.93;3.72;;;;;;;;;;6324975;27;20239;-72
2023/03/13 02:20:13;;;;;;;8.43;3.65;;;;;;;;;;6334112;28;20066;-69
2023/03/13 02:23:25;;;;;;;10.35;4.13;;;;;;;;;;6339153;28;20058;-72
2023/03/13 02:26:28;;;;;;;6.82;3.50;;;;;;;;;;6335153;28;20063;-74
2023/03/13 02:29:31;;;;;;;11.30;4.00;;;;;;;;;;6333053;28;20063;-72
2023/03/13 02:32:33;;;;;;;8.90;3.67;;;;;;;;;;6333024;28;20150;-72
2023/03/13 02:35:36;;;;;;;6.30;3.65;;;;;;;;;;6337062;28;20115;-74
2023/03/13 02:38:41;;;;;;;5.85;3.17;;;;;;;;;;6334419;28;20063;-71
2023/03/13 02:41:45;;;;;;;9.85;3.97;;;;;;;;;;6322316;28;20210;-70
2023/03/13 02:44:47;;;;;;;8.93;3.70;;;;;;;;;;6329110;27;20127;-74
2023/03/13 02:47:49;;;;;;;7.05;3.28;;;;;;;;;;6344125;27;20059;-74
2023/03/13 02:50:53;;;;;;;9.07;3.63;;;;;;;;;;6333873;27;20058;-73
2023/03/13 02:53:57;;;;;;;6.78;3.70;;;;;;;;;;6335944;28;20052;-71
2023/03/13 02:57:02;;;;;;;9.27;4.15;;;;;;;;;;6340053;27;20356;-72
2023/03/13 03:00:11;;;;;;;7.95;3.60;;;;;;;;;;6337706;28;20320;-73
2023/03/13 03:03:13;;;;;;;6.93;3.67;;;;;;;;;;6340671;27;20054;-73
2023/03/13 03:06:15;;;;;;;6.38;3.70;;;;;;;;;;6334722;28;20060;-73
2023/03/13 03:09:17;;;;;;;5.85;3.58;;;;;;;;;;6339792;28;20055;-73
2023/03/13 03:12:21;;;;;;;5.93;3.50;;;;;;;;;;6341075;28;20070;-70
2023/03/13 03:15:22;;;;;;;5.90;3.47;;;;;;;;;;6337620;28;20047;-72
2023/03/13 03:18:24;;;;;;;6.75;3.20;;;;;;;;;;6338031;28;20056;-72
2023/03/13 03:21:26;;;;;;;7.30;3.40;;;;;;;;;;6339731;28;20351;-73
2023/03/13 03:24:28;;;;;;;7.00;3.35;;;;;;;;;;6338642;27;20348;-71
2023/03/13 03:27:31;;;;;;;7.28;3.40;;;;;;;;;;6338802;28;20355;-70
2023/03/13 03:30:33;;;;;;;9.17;3.87;;;;;;;;;;6337033;27;20123;-72
2023/03/13 03:33:39;;;;;;;7.40;3.80;;;;;;;;;;6336708;28;20336;-73
2023/03/13 03:36:41;;;;;;;9.05;3.63;;;;;;;;;;6336992;27;20055;-73
2023/03/13 03:39:43;;;;;;;11.57;3.60;;;;;;;;;;6338559;27;20083;-66
2023/03/13 03:42:46;;;;;;;9.30;3.88;;;;;;;;;;6340743;28;20338;-73
2023/03/13 03:45:48;;;;;;;7.13;4.00;;;;;;;;;;6334489;28;20115;-72
2023/03/13 03:48:49;;;;;;;7.53;3.55;;;;;;;;;;6336496;28;20052;-69
2023/03/13 03:51:57;;;;;;;8.15;3.80;;;;;;;;;;6337859;28;20103;-73
2023/03/13 03:54:59;;;;;;;9.40;3.60;;;;;;;;;;6336828;28;20056;-73
2023/03/13 03:58:02;;;;;;;7.80;3.80;;;;;;;;;;6338695;28;20156;-72
2023/03/13 04:01:04;;;;;;;7.90;4.30;;;;;;;;;;6337126;27;20324;-71
2023/03/13 04:04:06;;;;;;;5.43;3.90;;;;;;;;;;6340877;27;20044;-73
2023/03/13 04:07:08;;;;;;;9.90;3.80;;;;;;;;;;6330611;28;20040;-71
2023/03/13 04:10:11;;;;;;;9.80;4.10;;;;;;;;;;6308758;28;20368;-72
2023/03/13 04:13:14;;;;;;;8.48;4.28;;;;;;;;;;6316685;28;20054;-73
2023/03/13 04:16:16;;;;;;;7.10;4.00;;;;;;;;;;6318491;28;20050;-71
2023/03/13 04:19:18;;;;;;;7.20;4.25;;;;;;;;;;6310444;28;20056;-71
2023/03/13 04:22:21;;;;;;;5.95;4.60;;;;;;;;;;6309351;28;20041;-72
2023/03/13 04:25:23;;;;;;;8.55;4.57;;;;;;;;;;6322261;28;20052;-71
2023/03/13 04:28:26;;;;;;;8.38;4.43;;;;;;;;;;6317215;28;20063;-72
2023/03/13 04:31:28;;;;;;;10.18;4.70;;;;;;;;;;6312730;28;20052;-72
2023/03/13 04:34:30;;;;;;;9.18;4.53;;;;;;;;;;6310023;28;20071;-72
2023/03/13 04:37:32;;;;;;;7.88;4.43;;;;;;;;;;6314461;28;20070;-72
2023/03/13 04:40:34;;;;;;;10.77;4.70;;;;;;;;;;6312699;28;20112;-73
2023/03/13 04:43:37;;;;;;;10.77;5.30;;;;;;;;;;6310049;28;20056;-72
2023/03/13 04:46:39;;;;;;;11.27;4.90;;;;;;;;;;6309916;28;20348;-69
2023/03/13 04:49:41;;;;;;;11.55;4.57;;;;;;;;;;6313466;28;20268;-72
2023/03/13 04:52:43;;;;;;;8.05;4.93;;;;;;;;;;6307845;28;20056;-72
2023/03/13 04:55:46;;;;;;;8.98;4.90;;;;;;;;;;6314272;28;20048;-72
2023/03/13 04:58:49;;;;;;;11.95;5.07;;;;;;;;;;6312662;28;20118;-67
2023/03/13 05:01:51;;;;;;;9.63;5.47;;;;;;;;;;6310135;28;20062;-72
2023/03/13 05:04:53;;;;;;;10.73;5.18;;;;;;;;;;6307701;28;20084;-73
2023/03/13 05:07:54;;;;;;;10.98;4.75;;;;;;;;;;6309885;28;20188;-69
2023/03/13 05:10:56;;;;;;;7.68;4.97;;;;;;;;;;6308371;28;20094;-69
2023/03/13 05:14:00;;;;;;;8.85;5.07;;;;;;;;;;6310432;28;20044;-72
2023/03/13 05:17:02;;;;;;;7.88;4.88;;;;;;;;;;6308679;28;20154;-73
2023/03/13 05:20:06;;;;;;;9.95;4.82;;;;;;;;;;6310797;28;20063;-72
2023/03/13 05:23:08;;;;;;;;;;;;;;;;;;6333979;28;20117;-72
2023/03/13 05:26:10;;;;;;;10.95;4.72;;;;;;;;;;6334791;28;19931;-69
2023/03/13 05:29:13;;;;;;;9.77;5.07;;;;;;;;;;6333570;28;20115;-73
2023/03/13 05:32:15;;;;;;;8.77;5.00;;;;;;;;;;6333230;28;20133;-72
2023/03/13 05:35:17;;;;;;;11.48;4.95;;;;;;;;;;6335200;27;20492;-72
2023/03/13 05:38:19;;;;;;;11.40;5.15;;;;;;;;;;6335418;27;20243;-69
2023/03/13 05:41:20;;;;;;;11.02;5.00;;;;;;;;;;6333206;28;20039;-71
2023/03/13 05:44:24;;;;;;;8.90;5.30;;;;;;;;;;6329784;28;20716;-72
2023/03/13 05:47:26;;;;;;;7.85;4.82;;;;;;;;;;6330788;28;20052;-72
2023/03/13 05:50:28;;;;;;;11.45;4.93;;;;;;;;;;6330909;28;20063;-68
2023/03/13 05:53:29;;;;;;;10.13;4.45;;;;;;;;;;6332535;27;20220;-66
2023/03/13 05:56:31;;;;;;;15.32;4.85;;;;;;;;;;6333421;28;20055;-68
2023/03/13 05:59:34;;;;;;;7.63;4.70;;;;;;;;;;6335688;28;20070;-70
2023/03/13 06:02:36;;;;;;;8.73;4.63;;;;;;;;;;6337805;28;20954;-69
2023/03/13 06:05:38;;;;;;;10.35;5.10;;;;;;;;;;6335639;28;20590;-71
2023/03/13 06:08:40;;;;;;;8.68;4.82;;;;;;;;;;6334269;27;20056;-71
2023/03/13 06:11:41;;;;;;;10.20;4.60;;;;;;;;;;6334075;28;20056;-73
2023/03/13 06:14:44;;;;;;;7.88;4.75;;;;;;;;;;6340127;27;20040;-71
2023/03/13 06:17:46;;;;;;;6.25;4.57;;;;;;;;;;6336635;28;20105;-72
2023/03/13 06:20:48;;;;;;;13.45;5.10;;;;;;;;;;6336047;28;20059;-72
2023/03/13 06:23:50;;;;;;;8.13;5.38;;;;;;;;;;6332438;28;20071;-70
2023/03/13 06:26:51;;;;;;;8.52;5.32;;;;;;;;;;6335717;27;20340;-71
2023/03/13 06:29:55;;;;;;;10.75;5.53;;;;;;;;;;6337586;27;20047;-71
2023/03/13 06:32:58;;;;;;;8.68;5.20;;;;;;;;;;6340215;28;20066;-71
2023/03/13 06:36:00;;;;;;;11.70;5.40;;;;;;;;;;6339558;27;20275;-71
2023/03/13 06:39:02;;;;;;;8.65;5.30;;;;;;;;;;6342129;27;20055;-71
2023/03/13 06:42:04;;;;;;;9.75;5.22;;;;;;;;;;6341151;28;20063;-70
2023/03/13 06:45:09;;;;;;;11.35;5.45;;;;;;;;;;6339266;27;20047;-71
2023/03/13 06:48:11;;;;;;;12.60;5.22;;;;;;;;;;6340704;27;20059;-66
2023/03/13 06:51:13;;;;;;;10.45;5.72;;;;;;;;;;6338431;27;20335;-71
2023/03/13 06:54:15;;;;;;;14.40;5.68;;;;;;;;;;6336063;27;20062;-70
2023/03/13 06:57:17;;;;;;;9.13;5.72;;;;;;;;;;6338075;28;20048;-68
2023/03/13 07:00:21;;;;;;;12.98;5.53;;;;;;;;;;6338592;27;20055;-69
2023/03/13 07:03:23;;;;;;;;;;;;;;;;;;6341142;27;20059;-68
2023/03/13 07:06:25;;;;;;;10.32;5.75;;;;;;;;;;6337251;27;19924;-69
2023/03/13 07:09:27;;;;;;;10.27;5.75;;;;;;;;;;6341426;28;20111;-70
2023/03/13 07:12:29;;;;;;;11.63;6.50;;;;;;;;;;6340314;27;20085;-70
2023/03/13 07:15:32;;;;;;;12.52;6.38;;;;;;;;;;6341877;28;20055;-70
2023/03/13 07:18:34;;;;;;;11.85;6.20;;;;;;;;;;6339174;28;20074;-68
2023/03/13 07:21:36;;;;;;;7.82;5.53;;;;;;;;;;6338641;27;20273;-69
2023/03/13 07:24:37;;;;;;;11.77;6.20;;;;;;;;;;6333372;28;20223;-69
2023/03/13 07:27:39;;;;;;;11.43;6.07;;;;;;;;;;6338064;27;20052;-69
2023/03/13 07:30:42;;;;;;;8.25;4.28;;;;;;;;;;6339842;28;20048;-69
2023/03/13 07:33:44;;;;;;;10.75;5.13;;;;;;;;;;6337396;28;20104;-70
2023/03/13 07:36:46;;;;;;;9.82;5.05;;;;;;;;;;6338042;27;20071;-70
2023/03/13 07:39:48;;;;;;;9.88;5.10;;;;;;;;;;6340909;28;20055;-69
2023/03/13 07:42:49;;;;;;;13.35;4.53;;;;;;;;;;6336009;28;20055;-70
2023/03/13 07:45:54;;;;;;;9.77;4.97;;;;;;;;;;6334750;27;20332;-70
2023/03/13 07:48:56;;;;;;;9.02;4.28;;;;;;;;;;6337866;27;20104;-69
2023/03/13 07:51:57;;;;;;;7.93;4.80;;;;;;;;;;6338413;27;20083;-70
2023/03/13 07:54:59;;;;;;;7.90;4.60;;;;;;;;;;6339636;27;20991;-70
2023/03/13 07:58:01;;;;;;;8.95;4.82;;;;;;;;;;6341097;27;20053;-69
2023/03/13 08:01:10;;;;;;;7.18;4.10;;;;;;;;;;6337514;28;20056;-70
2023/03/13 08:04:13;;;;;;;6.63;3.70;;;;;;;;;;6338790;27;20051;-70
2023/03/13 08:07:15;;;;;;;9.32;4.00;;;;;;;;;;6340132;27;20036;-70
2023/03/13 08:10:17;;;;;;;9.18;3.80;;;;;;;;;;6339795;27;20050;-71
2023/03/13 08:13:19;;;;;;;8.95;3.67;;;;;;;;;;6337740;28;20055;-67
2023/03/13 08:16:23;;;;;;;8.23;3.60;;;;;;;;;;6339499;28;20055;-68
2023/03/13 08:19:24;;;;;;;;;;;;;;;;;;6339012;28;20054;-71
2023/03/13 08:22:26;;;;;;;7.75;3.72;;;;;;;;;;6337118;28;20204;-68
2023/03/13 08:25:28;;;;;;;5.75;3.08;;;;;;;;;;6337416;28;20115;-69
2023/03/13 08:28:30;;;;;;;9.05;3.95;;;;;;;;;;6325711;28;20074;-69
2023/03/13 08:31:35;;;;;;;8.07;3.60;;;;;;;;;;6338903;28;20441;-70
2023/03/13 08:34:38;;;;;;;8.95;4.00;;;;;;;;;;6337385;28;20051;-69
2023/03/13 08:37:40;;;;;;;8.90;3.40;;;;;;;;;;6338812;27;20047;-68
2023/03/13 08:40:42;;;;;;;8.10;3.50;;;;;;;;;;6333462;28;20055;-70
2023/03/13 08:43:44;;;;;;;7.22;3.47;;;;;;;;;;6337551;28;20055;-70
2023/03/13 08:46:51;;;;;;;8.65;3.30;;;;;;;;;;6337555;28;20102;-70
2023/03/13 08:49:53;;;;;;;6.95;3.70;;;;;;;;;;6337800;28;20127;-70
2023/03/13 08:52:55;;;;;;;7.90;3.88;;;;;;;;;;6337759;28;20290;-70
2023/03/13 08:55:57;;;;;;;9.73;4.20;;;;;;;;;;6334565;28;20267;-70
2023/03/13 08:59:00;;;;;;;12.40;4.63;;;;;;;;;;6338537;28;20219;-69
2023/03/13 09:02:03;;;;;;;15.23;4.45;;;;;;;;;;6336007;28;20048;-69
2023/03/13 09:05:06;;;;;;;8.10;4.80;;;;;;;;;;6338228;27;20047;-70
2023/03/13 09:08:07;;;;;;;7.00;3.92;;;;;;;;;;6335688;28;20465;-69
2023/03/13 09:11:10;;;;;;;8.98;4.35;;;;;;;;;;6336863;28;20059;-70
2023/03/13 09:14:12;;;;;;;8.10;4.47;;;;;;;;;;6339772;28;20055;-70
2023/03/13 09:17:15;;;;;;;9.85;4.93;;;;;;;;;;6337468;28;20058;-71
2023/03/13 09:20:18;;;;;;;7.88;4.50;;;;;;;;;;6336671;28;20051;-70
2023/03/13 09:23:20;;;;;;;9.45;5.00;;;;;;;;;;6334804;28;20071;-68
2023/03/13 09:26:23;;;;;;;10.45;4.65;;;;;;;;;;6336664;27;20300;-70
2023/03/13 09:29:24;;;;;;;13.80;5.57;;;;;;;;;;6335480;28;20118;-66
2023/03/13 09:32:27;;;;;;;10.02;4.82;;;;;;;;;;6337230;27;20055;-66
2023/03/13 09:35:29;;;;;;;9.53;4.23;;;;;;;;;;6336800;27;20425;-70
2023/03/13 09:38:31;;;;;;;10.18;4.70;;;;;;;;;;6334165;27;20043;-70
2023/03/13 09:41:36;;;;;;;8.40;4.72;;;;;;;;;;6338162;28;20048;-70
2023/03/13 09:44:40;;;;;;;8.63;4.72;;;;;;;;;;6332163;28;20287;-70
2023/03/13 09:47:46;;;;;;;8.85;4.28;;;;;;;;;;6335433;28;20111;-70
2023/03/13 09:50:53;;;;;;;9.23;4.50;;;;;;;;;;6333609;28;20043;-68
2023/03/13 09:53:59;;;;;;;11.43;4.82;;;;;;;;;;6334540;28;20062;-68
2023/03/13 09:57:10;;;;;;;9.35;4.78;;;;;;;;;;6334810;27;20047;-70
2023/03/13 10:00:13;;;;;;;11.15;5.13;;;;;;;;;;6334921;28;20073;-70
2023/03/13 10:03:21;;;;;;;11.37;5.33;;;;;;;;;;6338203;27;20062;-71
2023/03/13 10:06:24;;;;;;;11.13;5.35;;;;;;;;;;6340095;27;20052;-69
2023/03/13 10:09:29;;;;;;;10.98;4.80;;;;;;;;;;6333737;27;20060;-70
2023/03/13 10:12:38;;;;;;;10.93;5.55;;;;;;;;;;6343502;27;20094;-70
2023/03/13 10:19:10;;;;;;;8.18;5.40;;;;;;;;;;6344368;28;20063;-70
2023/03/13 10:22:15;;;;;;;10.20;5.18;;;;;;;;;;6346327;28;20287;-71
2023/03/13 10:25:25;;;;;;;11.55;6.28;;;;;;;;;;6348008;28;20043;-70
2023/03/13 10:28:27;;;;;;;11.30;5.35;;;;;;;;;;6340095;27;20062;-70
2023/03/13 10:31:32;;;;;;;11.18;5.50;;;;;;;;;;6339967;28;20143;-70
2023/03/13 10:34:50;;;;;;;8.65;5.32;;;;;;;;;;6339885;27;20066;-70
2023/03/13 10:38:01;;;;;;;11.82;5.70;;;;;;;;;;6339811;28;20051;-70
2023/03/13 10:41:23;;;;;;;8.68;5.72;;;;;;;;;;6340234;28;20054;-69
2023/03/13 10:44:31;;;;;;;11.00;5.40;;;;;;;;;;6335676;27;20063;-69
2023/03/13 10:47:34;;;;;;;9.55;5.22;;;;;;;;;;6337596;28;20056;-70
2023/03/13 10:50:37;;;;;;;8.27;5.47;;;;;;;;;;6340279;27;20067;-71
2023/03/13 10:53:39;;;;;;;11.10;5.57;;;;;;;;;;6340613;27;20052;-69
2023/03/13 10:56:41;;;;;;;11.85;5.28;;;;;;;;;;6339642;28;20062;-70
2023/03/13 10:59:44;;;;;;;13.77;5.40;;;;;;;;;;6339295;28;20059;-70
2023/03/13 11:02:46;;;;;;;9.75;5.50;;;;;;;;;;6338235;28;20106;-70
2023/03/13 11:05:56;;;;;;;8.85;5.30;;;;;;;;;;6338841;27;20051;-71
2023/03/13 11:09:12;;;;;;;10.77;5.45;;;;;;;;;;6340405;27;20044;-69
2023/03/13 11:12:17;;;;;;;8.52;5.45;;;;;;;;;;6342076;28;20315;-71
2023/03/13 11:15:22;;;;;;;10.07;5.80;;;;;;;;;;6341492;28;20107;-70
2023/03/13 11:18:30;;;;;;;13.02;5.85;;;;;;;;;;6338956;28;20071;-69
2023/03/13 11:21:40;;;;;;;10.10;5.53;;;;;;;;;;6337989;28;20286;-70
2023/03/13 11:24:46;;;;;;;10.10;6.13;;;;;;;;;;6337479;28;20052;-66
2023/03/13 11:27:54;;;;;;;11.77;5.70;;;;;;;;;;6341514;28;20629;-70
2023/03/13 11:31:14;;;;;;;12.05;6.28;;;;;;;;;;6339058;28;20066;-69
2023/03/13 11:34:22;;;;;;;11.32;6.00;;;;;;;;;;6337892;27;20071;-71
2023/03/13 11:37:28;;;;;;;10.00;5.82;;;;;;;;;;6341052;27;20059;-68
2023/03/13 11:40:33;;;;;;;11.60;5.70;;;;;;;;;;6338783;27;20135;-71
2023/03/13 11:43:46;;;;;;;8.05;5.50;;;;;;;;;;6337703;28;20141;-71
2023/03/13 11:46:56;;;;;;;10.77;5.60;;;;;;;;;;6336060;27;20060;-70
2023/03/13 11:50:08;;;;;;;12.90;5.03;;;;;;;;;;6336911;28;20060;-71
2023/03/13 11:53:27;;;;;;;13.20;5.85;;;;;;;;;;6337038;28;20342;-69
2023/03/13 11:56:33;;;;;;;11.70;5.45;;;;;;;;;;6336921;28;20062;-69
2023/03/13 11:59:42;;;;;;;10.48;5.03;;;;;;;;;;6337980;28;20047;-70
2023/03/13 12:02:50;;;;;;;8.70;5.55;;;;;;;;;;6335980;28;20057;-71
2023/03/13 12:05:54;;;;;;;9.80;5.65;;;;;;;;;;6335421;28;20048;-69
2023/03/13 12:09:01;;;;;;;9.35;5.70;;;;;;;;;;6334844;28;20110;-71
2023/03/13 12:12:05;;;;;;;7.78;4.70;;;;;;;;;;6340012;28;20138;-68
2023/03/13 12:15:17;;;;;;;9.80;4.15;;;;;;;;;;6339054;27;20085;-72
2023/03/13 12:18:23;;;;;;;11.05;5.32;;;;;;;;;;6337679;28;20044;-71
2023/03/13 12:21:29;;;;;;;11.20;5.60;;;;;;;;;;6336742;28;20048;-69
2023/03/13 12:24:35;;;;;;;9.50;5.25;;;;;;;;;;6338371;28;20077;-70
2023/03/13 12:27:39;;;;;;;11.27;5.43;;;;;;;;;;6334979;28;20106;-70
2023/03/13 12:30:43;;;;;;;12.00;5.47;;;;;;;;;;6337356;28;20051;-69
2023/03/13 12:33:50;;;;;;;8.45;4.72;;;;;;;;;;6335686;28;20158;-70
2023/03/13 12:36:58;;;;;;;15.13;5.40;;;;;;;;;;6337369;28;20126;-70
2023/03/13 12:40:09;;;;;;;10.60;4.95;;;;;;;;;;6334930;28;20047;-70
2023/03/13 12:43:15;;;;;;;9.18;4.93;;;;;;;;;;6338032;27;20331;-70
2023/03/13 12:46:35;;;;;;;7.60;5.40;;;;;;;;;;6336849;27;20337;-70
2023/03/13 12:49:57;;;;;;;14.10;7.80;;;;;;;;;;6335889;28;20044;-71
2023/03/13 12:53:24;;;;;;;39.45;22.10;;;;;;;;;;6334032;27;20070;-70
2023/03/13 12:56:41;;;;;;;14.30;8.77;;;;;;;;;;6335493;28;20051;-71
2023/03/13 12:59:46;;;;;;;12.45;5.47;;;;;;;;;;6335880;28;20055;-71
2023/03/13 13:02:47;;;;;;;11.20;5.57;;;;;;;;;;6337574;28;20108;-71
2023/03/13 13:06:00;;;;;;;10.38;5.80;;;;;;;;;;6335005;28;20052;-71
2023/03/13 13:09:07;;;;;;;14.77;5.68;;;;;;;;;;6336166;28;20296;-70
2023/03/13 13:12:22;;;;;;;12.40;5.70;;;;;;;;;;6334635;28;20056;-70
2023/03/13 13:15:26;;;;;;;13.80;5.55;;;;;;;;;;6339261;28;20082;-71
2023/03/13 13:18:30;;;;;;;13.68;6.22;;;;;;;;;;6337000;28;20055;-70
2023/03/13 13:21:32;;;;;;;8.85;5.80;;;;;;;;;;6335375;28;20051;-70
2023/03/13 13:24:41;;;;;;;10.88;6.47;;;;;;;;;;6336262;28;20101;-71
2023/03/13 13:27:52;;;;;;;10.85;6.13;;;;;;;;;;6334139;28;20058;-70
2023/03/13 13:31:08;;;;;;;9.93;6.20;;;;;;;;;;6337469;28;20051;-69
2023/03/13 13:34:51;;;;;;;10.93;5.93;;;;;;;;;;6332570;28;20340;-71
2023/03/13 13:38:22;;;;;;;12.68;6.35;;;;;;;;;;6336622;27;20052;-68
2023/03/13 13:41:35;;;;;;;12.32;6.10;;;;;;;;;;6328613;28;20420;-71
2023/03/13 13:44:57;;;;;;;11.40;6.43;;;;;;;;;;6312757;28;20044;-71
2023/03/13 13:48:41;;;;;;;10.05;5.70;;;;;;;;;;6320851;28;20248;-69
2023/03/13 13:52:18;;;;;;;29.70;17.88;;;;;;;;;;6256178;28;20045;-71
2023/03/13 13:55:34;;;;;;;99.80;60.05;;;;;;;;;;6281922;28;20060;-67
2023/03/13 13:58:38;;;;;;;18.02;10.43;;;;;;;;;;6283357;28;20123;-70
2023/03/13 14:01:41;;;;;;;13.20;7.20;;;;;;;;;;6282372;28;20119;-70
2023/03/13 14:04:44;;;;;;;10.60;6.20;;;;;;;;;;6281170;28;20326;-70
2023/03/13 14:07:50;;;;;;;10.70;6.90;;;;;;;;;;6283386;28;20268;-70
2023/03/13 14:10:55;;;;;;;16.90;7.30;;;;;;;;;;6281447;28;20052;-70
2023/03/13 14:14:10;;;;;;;14.07;7.00;;;;;;;;;;6284224;28;20056;-70
2023/03/13 14:17:12;;;;;;;12.93;6.15;;;;;;;;;;6267436;28;20064;-70
2023/03/13 14:20:32;;;;;;;15.10;7.00;;;;;;;;;;6265670;28;20280;-70
2023/03/13 14:23:40;;;;;;;10.23;6.47;;;;;;;;;;6282745;28;20095;-69
2023/03/13 14:26:47;;;;;;;13.40;6.55;;;;;;;;;;6329384;28;20055;-69
2023/03/13 14:30:08;;;;;;;13.55;6.57;;;;;;;;;;6337516;28;20054;-69
2023/03/13 14:33:10;;;;;;;12.82;6.85;;;;;;;;;;6333775;28;20051;-69
2023/03/13 14:36:12;;;;;;;12.88;6.28;;;;;;;;;;6334574;28;20107;-67
2023/03/13 14:39:18;;;;;;;13.18;6.63;;;;;;;;;;6335538;28;20109;-70
2023/03/13 14:42:21;;;;;;;13.43;6.50;;;;;;;;;;6336437;28;20154;-72
2023/03/13 14:45:27;;;;;;;16.63;6.60;;;;;;;;;;6335977;28;20044;-72
2023/03/13 14:48:31;;;;;;;12.52;6.55;;;;;;;;;;6333956;28;20445;-67
2023/03/13 14:51:33;;;;;;;11.40;6.63;;;;;;;;;;6336385;28;20066;-72
2023/03/13 14:54:36;;;;;;;12.27;6.07;;;;;;;;;;6337875;28;20059;-72
2023/03/13 14:57:54;;;;;;;15.05;7.05;;;;;;;;;;6340246;28;20054;-73
2023/03/13 15:00:58;;;;;;;14.13;7.15;;;;;;;;;;6340013;28;20051;-72
2023/03/13 15:04:00;;;;;;;12.40;6.22;;;;;;;;;;6338989;28;21880;-71
2023/03/13 15:07:03;;;;;;;13.57;6.93;;;;;;;;;;6336543;28;20063;-70
2023/03/13 15:10:19;;;;;;;20.20;8.13;;;;;;;;;;6340588;28;20048;-71
2023/03/13 15:13:32;;;;;;;16.38;9.63;;;;;;;;;;6330513;28;20048;-73
2023/03/13 15:16:34;;;;;;;12.83;7.10;;;;;;;;;;6313900;28;20635;-69
2023/03/13 15:19:36;;;;;;;14.63;7.25;;;;;;;;;;6312972;28;20481;-70
2023/03/13 15:22:40;;;;;;;12.82;6.95;;;;;;;;;;6312925;28;20040;-70
2023/03/13 15:25:41;;;;;;;10.40;7.22;;;;;;;;;;6313133;28;20051;-68
2023/03/13 15:28:45;;;;;;;12.27;6.47;;;;;;;;;;6313934;28;20043;-68
2023/03/13 15:31:47;;;;;;;9.13;6.43;;;;;;;;;;6316401;28;20056;-70
2023/03/13 15:34:49;;;;;;;13.75;6.68;;;;;;;;;;6311829;28;20093;-69
2023/03/13 15:37:51;;;;;;;15.02;6.88;;;;;;;;;;6312686;28;20128;-70
2023/03/13 15:40:53;;;;;;;12.68;6.93;;;;;;;;;;6311404;28;20053;-72
2023/03/13 15:43:56;;;;;;;15.30;6.53;;;;;;;;;;6313365;28;20051;-70
2023/03/13 15:46:58;;;;;;;13.83;7.77;;;;;;;;;;6310535;28;20376;-72
2023/03/13 15:49:59;;;;;;;15.18;7.30;;;;;;;;;;6313517;28;20466;-72
2023/03/13 15:53:01;;;;;;;21.48;6.90;;;;;;;;;;6314919;28;20059;-72
2023/03/13 15:56:10;;;;;;;11.90;6.10;;;;;;;;;;6313108;28;20056;-71
2023/03/13 15:59:15;;;;;;;10.50;5.45;;;;;;;;;;6342175;27;20090;-72
2023/03/13 16:02:18;;;;;;;11.43;6.28;;;;;;;;;;6338903;28;20052;-73
2023/03/13 16:05:20;;;;;;;13.35;5.82;;;;;;;;;;6334490;27;20063;-69
2023/03/13 16:08:23;;;;;;;12.65;6.28;;;;;;;;;;6335161;28;20122;-73
2023/03/13 16:11:26;;;;;;;13.35;7.07;;;;;;;;;;6336565;28;20233;-72
2023/03/13 16:14:29;;;;;;;10.68;6.40;;;;;;;;;;6337623;27;20332;-71
2023/03/13 16:17:31;;;;;;;13.10;6.30;;;;;;;;;;6335951;27;20047;-71
2023/03/13 16:20:33;;;;;;;36.00;24.35;;;;;;;;;;6336286;28;20040;-72
2023/03/13 16:23:35;;;;;;;17.40;10.75;;;;;;;;;;6337312;28;20070;-72
2023/03/13 16:26:37;;;;;;;12.70;6.40;;;;;;;;;;6334697;28;20052;-73
2023/03/13 16:29:40;;;;;;;10.43;5.15;;;;;;;;;;6336805;28;20052;-72
2023/03/13 16:32:42;;;;;;;10.35;5.40;;;;;;;;;;6335549;28;20218;-72
2023/03/13 16:35:44;;;;;;;9.52;5.45;;;;;;;;;;6336707;27;20052;-68
2023/03/13 16:38:50;;;;;;;15.27;6.18;;;;;;;;;;6337293;27;20183;-73
2023/03/13 16:41:51;;;;;;;7.38;5.32;;;;;;;;;;6334553;28;20351;-71
2023/03/13 16:44:54;;;;;;;11.98;5.93;;;;;;;;;;6337212;27;20252;-72
2023/03/13 16:47:56;;;;;;;10.18;5.93;;;;;;;;;;6336035;28;20063;-67
2023/03/13 16:50:58;;;;;;;13.95;5.90;;;;;;;;;;6334804;28;20058;-72
2023/03/13 16:54:00;;;;;;;11.57;6.03;;;;;;;;;;6335002;27;20131;-71
2023/03/13 16:57:03;;;;;;;10.48;6.15;;;;;;;;;;6334425;27;20368;-70
2023/03/13 17:00:14;;;;;;;12.07;5.82;;;;;;;;;;6334373;27;20047;-72
2023/03/13 17:03:15;;;;;;;13.73;6.20;;;;;;;;;;6336690;28;20106;-73
2023/03/13 17:06:20;;;;;;;12.70;6.65;;;;;;;;;;6332043;27;20056;-72
2023/03/13 17:09:22;;;;;;;12.07;6.30;;;;;;;;;;6333578;28;20154;-70
2023/03/13 17:12:23;;;;;;;15.05;7.20;;;;;;;;;;6336489;27;20074;-72
2023/03/13 17:15:28;;;;;;;15.55;7.03;;;;;;;;;;6333043;28;20131;-72
2023/03/13 17:18:30;;;;;;;13.02;7.70;;;;;;;;;;6334855;27;20039;-70
2023/03/13 17:21:35;;;;;;;12.00;7.15;;;;;;;;;;6337641;27;20048;-72
2023/03/13 17:24:37;;;;;;;15.52;7.68;;;;;;;;;;6333344;27;20054;-66
2023/03/13 17:27:39;;;;;;;14.23;8.07;;;;;;;;;;6335407;28;20067;-70
2023/03/13 17:30:42;;;;;;;11.27;6.85;;;;;;;;;;6336096;28;20284;-72
2023/03/13 17:33:45;;;;;;;16.40;7.63;;;;;;;;;;6337181;28;20138;-72
2023/03/13 17:36:47;;;;;;;11.40;7.05;;;;;;;;;;6333127;28;20055;-72
2023/03/13 17:39:50;;;;;;;12.50;7.30;;;;;;;;;;6334092;28;20107;-71
2023/03/13 17:42:52;;;;;;;14.50;7.07;;;;;;;;;;6336364;27;20321;-72
2023/03/13 17:45:56;;;;;;;13.20;7.57;;;;;;;;;;6335144;28;20055;-73
2023/03/13 17:48:58;;;;;;;12.65;7.28;;;;;;;;;;6333721;27;20130;-72
2023/03/13 17:51:59;;;;;;;15.95;7.55;;;;;;;;;;6325065;28;20101;-73
2023/03/13 17:55:01;;;;;;;13.73;7.78;;;;;;;;;;6334466;28;20063;-71
2023/03/13 17:58:03;;;;;;;15.02;7.28;;;;;;;;;;6333236;28;20044;-72
2023/03/13 18:01:06;;;;;;;14.98;7.75;;;;;;;;;;6334666;28;20093;-73
2023/03/13 18:04:09;;;;;;;17.80;7.75;;;;;;;;;;6335055;28;20059;-71
2023/03/13 18:07:15;;;;;;;15.23;7.30;;;;;;;;;;6330385;28;20465;-74
2023/03/13 18:10:19;;;;;;;13.77;7.22;;;;;;;;;;6333110;28;20062;-71
2023/03/13 18:13:21;;;;;;;;;;;;;;;;;;6334708;27;20340;-70
2023/03/13 18:16:36;;;;;;;17.70;7.15;;;;;;;;;;6335884;28;19936;-68
2023/03/13 18:19:37;;;;;;;13.45;7.38;;;;;;;;;;6330800;28;21241;-71
2023/03/13 18:22:39;;;;;;;15.38;7.95;;;;;;;;;;6332771;27;20047;-73